Tropical Cyclones
[Index]
Main Index Home Page Stock Weather Photos Extreme Storms Discussion Storm News and Storm Chasing Reports Tropical Cyclones / Hurricanes / Typhoons Weather Data and Links Wild Fires / Bushfires Weather Observation Techniques Weather Picture Catalogue Tornado Pictures and Reports Stock Video Footage and DVDs for sale
Season 1988-1989 Tropical Cyclone MEENA Track Map
Season 1988-1989 Summaries: [BoM-AU] [JTWC-AU] [JTWC-SIO] [JTWC-SPAC] [JTWC-SH]
<<- Previous TC | BoM 1988-1989 Season | Next TC ->>

click for intensity scale information  Lat/long Grid: Show Hide

 Date Labels: Show Hide

Bureau of Meteorology Tropical Cyclone Data

Name: MEENA
Number: 717 / 198889_11

05 May 1989 00:00 UTC to 10 May 1989 06:00 UTC

    date/time    lat    long    hPa   cat  kts
1989-05-05 00   13.4   160.0    994    1    35          
1989-05-05 06   13.8   159.3    992    1    37          
1989-05-05 12   14.6   158.9    992    1    37          
1989-05-05 18   15.5   158.0    992    1    37          
1989-05-06 00   15.3   156.3    992    1    43          
1989-05-06 06   15.0   155.0    990    1    51          
1989-05-06 12   14.2   154.2    995    1    41          
1989-05-06 18   13.7   153.2    995    1    37          
1989-05-07 00   13.4   152.0    995    1    37          
1989-05-07 06   13.1   150.8    995    1    37          
1989-05-07 12   12.8   149.7    995    1    37          
1989-05-07 18   12.8   148.4    995    1    37          
1989-05-08 00   12.8   147.3    995    1    37          
1989-05-08 06   12.6   146.2    995    1    37          
1989-05-08 12   12.5   145.1    998         37          
1989-05-08 18   12.4   144.2   1000         35          
1989-05-09 00   12.4   143.2   1004         35          
1989-05-09 06   12.3   142.3   1004         27          
1989-05-09 12   12.2   141.2   1005         21          
1989-05-09 18   12.1   140.1   1005         19          
1989-05-10 00   11.9   138.8   1007         16          
1989-05-10 06   11.5   137.4   1006         14          
Winds are 10-min average.

Tropical cyclone tracks developed by Michael Bath using data from the Bureau of Meteorology and Google Maps.


[Australian Severe Weather index] [Copyright Notice] [Email Contacts] [Search This Site] [Privacy Policy]
Document: tropical_cyclone_meena.htm Updated: 30 May 2013